Time;durP1;ratioP1;P1;durP2;ratioP2;P2;SDS_P1;SDS_P2;PMS_P1;PMS_P2;Temp;Humidity;BMP_temperature;BMP_pressure;BME280_temperature;BME280_humidity;BME280_pressure;Samples;Min_cycle;Max_cycle;Signal;HPM_P1;HPM_P2
2022/01/02 00:02:51;;;;;;;3.37;1.87;;;;;;;;;;6225134;28;20359;-64
2022/01/02 00:06:13;;;;;;;4.70;3.30;;;;;;;;;;6237300;28;20632;-64
2022/01/02 00:09:34;;;;;;;3.77;2.60;;;;;;;;;;6236337;28;20224;-64
2022/01/02 00:12:57;;;;;;;3.07;2.30;;;;;;;;;;6226293;28;20236;-65
2022/01/02 00:16:19;;;;;;;5.63;2.83;;;;;;;;;;6222271;28;20649;-65
2022/01/02 00:19:44;;;;;;;4.53;2.97;;;;;;;;;;6228648;28;20228;-65
2022/01/02 00:23:07;;;;;;;5.40;2.00;;;;;;;;;;6228985;28;20220;-64
2022/01/02 00:26:35;;;;;;;3.67;2.77;;;;;;;;;;6228867;28;20918;-64
2022/01/02 00:29:56;;;;;;;2.60;2.40;;;;;;;;;;6227142;28;20229;-64
2022/01/02 00:33:20;;;;;;;5.37;2.70;;;;;;;;;;6229077;28;20987;-64
2022/01/02 00:36:41;;;;;;;2.50;2.20;;;;;;;;;;6233550;28;20240;-64
2022/01/02 00:40:03;;;;;;;3.40;2.70;;;;;;;;;;6231865;28;20225;-63
2022/01/02 00:43:26;;;;;;;4.47;3.40;;;;;;;;;;6232797;28;20673;-65
2022/01/02 00:46:51;;;;;;;2.77;2.10;;;;;;;;;;6227510;28;20228;-64
2022/01/02 00:50:14;;;;;;;2.77;2.17;;;;;;;;;;6225442;28;20237;-64
2022/01/02 00:53:36;;;;;;;2.87;2.60;;;;;;;;;;6229893;28;20220;-63
2022/01/02 00:56:58;;;;;;;4.50;3.17;;;;;;;;;;6226840;28;20224;-63
2022/01/02 01:00:19;;;;;;;3.50;2.83;;;;;;;;;;6225666;28;20236;-64
2022/01/02 01:03:40;;;;;;;3.40;2.73;;;;;;;;;;6231876;28;20240;-63
2022/01/02 01:07:05;;;;;;;3.37;2.70;;;;;;;;;;6227453;28;20232;-64
2022/01/02 01:10:27;;;;;;;3.17;2.60;;;;;;;;;;6229246;28;20533;-64
2022/01/02 01:13:47;;;;;;;4.00;2.77;;;;;;;;;;6233141;28;20232;-64
2022/01/02 01:17:10;;;;;;;3.90;3.40;;;;;;;;;;6231081;28;20224;-64
2022/01/02 01:20:31;;;;;;;5.77;2.87;;;;;;;;;;6244680;28;20224;-65
2022/01/02 01:23:53;;;;;;;4.23;3.17;;;;;;;;;;6257252;28;20228;-64
2022/01/02 01:27:15;;;;;;;3.83;3.03;;;;;;;;;;6207067;28;20241;-64
2022/01/02 01:30:36;;;;;;;4.03;3.47;;;;;;;;;;6232368;28;20231;-64
2022/01/02 01:33:57;;;;;;;3.63;3.20;;;;;;;;;;6230934;28;20331;-65
2022/01/02 01:37:18;;;;;;;5.93;3.47;;;;;;;;;;6217134;28;20289;-63
2022/01/02 01:40:44;;;;;;;4.77;3.37;;;;;;;;;;6228739;28;20239;-64
2022/01/02 01:44:20;;;;;;;4.27;3.47;;;;;;;;;;6253386;28;20236;-65
2022/01/02 01:47:42;;;;;;;4.83;3.97;;;;;;;;;;6248572;28;20241;-65
2022/01/02 01:51:04;;;;;;;5.27;3.90;;;;;;;;;;6247117;28;20836;-64
2022/01/02 01:54:24;;;;;;;7.33;3.27;;;;;;;;;;6235424;28;20229;-63
2022/01/02 01:57:47;;;;;;;3.83;3.13;;;;;;;;;;6233403;28;20980;-65
2022/01/02 02:01:07;;;;;;;6.20;3.77;;;;;;;;;;6232341;28;20240;-64
2022/01/02 02:04:38;;;;;;;5.37;3.20;;;;;;;;;;6225624;28;20232;-63
2022/01/02 02:07:59;;;;;;;5.03;3.70;;;;;;;;;;6229977;28;20626;-65
2022/01/02 02:11:23;;;;;;;5.17;3.37;;;;;;;;;;6236214;28;20248;-63
2022/01/02 02:14:46;;;;;;;5.07;4.00;;;;;;;;;;6225837;28;20229;-63
2022/01/02 02:18:07;;;;;;;6.00;4.77;;;;;;;;;;6230655;28;20979;-66
2022/01/02 02:21:31;;;;;;;7.23;4.67;;;;;;;;;;6225753;28;20244;-64
2022/01/02 02:24:52;;;;;;;4.90;4.47;;;;;;;;;;6229440;28;20229;-64
2022/01/02 02:28:13;;;;;;;6.40;4.53;;;;;;;;;;6244036;28;20232;-64
2022/01/02 02:31:34;;;;;;;5.80;4.73;;;;;;;;;;6228462;28;20236;-65
2022/01/02 02:34:56;;;;;;;6.33;4.73;;;;;;;;;;6229328;28;20225;-64
2022/01/02 02:38:19;;;;;;;5.30;3.83;;;;;;;;;;6236709;28;20228;-63
2022/01/02 02:41:44;;;;;;;6.23;5.10;;;;;;;;;;6244939;28;20224;-65
2022/01/02 02:49:02;;;;;;;5.37;4.83;;;;;;;;;;6230289;28;20344;-63
2022/01/02 02:52:34;;;;;;;5.00;4.47;;;;;;;;;;6243774;28;20304;-64
2022/01/02 02:55:58;;;;;;;5.67;4.93;;;;;;;;;;6228925;28;20240;-64
2022/01/02 02:59:19;;;;;;;5.07;3.97;;;;;;;;;;6229916;28;20224;-64
2022/01/02 03:02:40;;;;;;;5.33;4.17;;;;;;;;;;6246580;28;20244;-66
2022/01/02 03:06:01;;;;;;;5.40;4.87;;;;;;;;;;6230236;28;20236;-66
2022/01/02 03:09:36;;;;;;;5.93;5.43;;;;;;;;;;6228604;28;20240;-65
2022/01/02 03:12:59;;;;;;;5.47;4.87;;;;;;;;;;6255303;28;20251;-65
2022/01/02 03:16:20;;;;;;;6.07;5.47;;;;;;;;;;6250664;28;20232;-65
2022/01/02 03:19:40;;;;;;;10.97;5.70;;;;;;;;;;6243637;28;20982;-64
2022/01/02 03:23:01;;;;;;;5.97;5.47;;;;;;;;;;6233992;28;20228;-64
2022/01/02 03:26:22;;;;;;;5.63;4.93;;;;;;;;;;6231758;28;20228;-65
2022/01/02 03:29:44;;;;;;;8.27;6.40;;;;;;;;;;6225204;28;20248;-64
2022/01/02 03:33:05;;;;;;;7.70;5.30;;;;;;;;;;6225304;28;20327;-65
2022/01/02 03:36:25;;;;;;;7.80;5.57;;;;;;;;;;6216584;28;20229;-64
2022/01/02 03:39:46;;;;;;;6.50;5.90;;;;;;;;;;6230526;28;20240;-65
2022/01/02 03:43:07;;;;;;;8.00;5.90;;;;;;;;;;6228107;28;20228;-64
2022/01/02 03:46:29;;;;;;;6.63;5.93;;;;;;;;;;6228355;28;20228;-64
2022/01/02 03:49:50;;;;;;;7.07;6.37;;;;;;;;;;6226430;28;20619;-64
2022/01/02 03:53:10;;;;;;;6.13;5.53;;;;;;;;;;6235193;28;20315;-65
2022/01/02 03:56:31;;;;;;;6.67;5.80;;;;;;;;;;6225997;28;20221;-64
2022/01/02 03:59:52;;;;;;;10.47;7.27;;;;;;;;;;6231442;28;20307;-64
2022/01/02 04:03:15;;;;;;;9.93;5.80;;;;;;;;;;6227082;28;20232;-65
2022/01/02 04:06:36;;;;;;;7.87;6.83;;;;;;;;;;6238969;28;20708;-64
2022/01/02 04:10:01;;;;;;;7.53;6.80;;;;;;;;;;6227201;28;21868;-64
2022/01/02 04:13:22;;;;;;;7.97;7.27;;;;;;;;;;6223144;28;20236;-64
2022/01/02 04:16:42;;;;;;;8.73;7.87;;;;;;;;;;6227653;28;20236;-64
2022/01/02 04:20:06;;;;;;;6.80;6.10;;;;;;;;;;6229857;28;20228;-64
2022/01/02 04:23:27;;;;;;;7.93;7.20;;;;;;;;;;6229924;28;20622;-64
2022/01/02 04:26:47;;;;;;;7.77;7.07;;;;;;;;;;6228797;28;20240;-65
2022/01/02 04:30:10;;;;;;;7.77;7.07;;;;;;;;;;6229388;28;20232;-64
2022/01/02 04:33:30;;;;;;;7.70;6.80;;;;;;;;;;6230297;28;20236;-64
2022/01/02 04:36:52;;;;;;;10.70;8.23;;;;;;;;;;6229622;28;20311;-64
2022/01/02 04:40:12;;;;;;;8.33;7.53;;;;;;;;;;6242817;28;20264;-64
2022/01/02 04:43:33;;;;;;;8.00;7.13;;;;;;;;;;6228752;28;20220;-65
2022/01/02 04:46:53;;;;;;;8.30;7.17;;;;;;;;;;6228967;28;20266;-64
2022/01/02 04:50:14;;;;;;;10.93;7.93;;;;;;;;;;6227425;28;20320;-65
2022/01/02 04:53:45;;;;;;;9.67;8.67;;;;;;;;;;6244008;28;20236;-64
2022/01/02 04:57:06;;;;;;;9.43;8.53;;;;;;;;;;6223912;28;20589;-65
2022/01/02 05:00:27;;;;;;;9.83;8.93;;;;;;;;;;6229389;28;21930;-65
2022/01/02 05:03:48;;;;;;;8.53;7.73;;;;;;;;;;6231649;28;20237;-64
2022/01/02 05:07:11;;;;;;;9.40;8.50;;;;;;;;;;6229171;28;20622;-64
2022/01/02 05:10:35;;;;;;;10.20;9.10;;;;;;;;;;6222592;28;20576;-63
2022/01/02 05:13:55;;;;;;;10.13;9.13;;;;;;;;;;6225824;28;20225;-63
2022/01/02 05:17:16;;;;;;;8.70;7.43;;;;;;;;;;6225762;28;20237;-65
2022/01/02 05:20:37;;;;;;;8.80;7.90;;;;;;;;;;6228768;28;20240;-65
2022/01/02 05:23:58;;;;;;;9.37;8.30;;;;;;;;;;6229364;28;20228;-64
2022/01/02 05:27:20;;;;;;;9.40;8.50;;;;;;;;;;6239226;28;20237;-65
2022/01/02 05:30:42;;;;;;;9.60;8.60;;;;;;;;;;6226645;28;20324;-64
2022/01/02 05:34:03;;;;;;;10.17;9.17;;;;;;;;;;6228485;28;20236;-64
2022/01/02 05:37:24;;;;;;;8.70;7.97;;;;;;;;;;6235201;28;20224;-64
2022/01/02 05:40:46;;;;;;;8.33;7.40;;;;;;;;;;6226638;28;20229;-64
2022/01/02 05:44:08;;;;;;;10.13;8.27;;;;;;;;;;6243372;28;20676;-65
2022/01/02 05:47:31;;;;;;;9.17;8.33;;;;;;;;;;6256805;28;20228;-64
2022/01/02 05:50:52;;;;;;;9.43;8.53;;;;;;;;;;6246268;28;20228;-63
2022/01/02 05:54:12;;;;;;;11.90;9.40;;;;;;;;;;6234437;28;20267;-64
2022/01/02 05:57:33;;;;;;;13.50;11.27;;;;;;;;;;6233091;28;20229;-64
2022/01/02 06:00:54;;;;;;;13.37;9.73;;;;;;;;;;6225832;28;20229;-64
2022/01/02 06:04:18;;;;;;;10.37;9.03;;;;;;;;;;6230605;28;20331;-64
2022/01/02 06:07:39;;;;;;;11.37;8.63;;;;;;;;;;6245660;28;20236;-64
2022/01/02 06:11:01;;;;;;;10.23;9.03;;;;;;;;;;6230576;28;20620;-64
2022/01/02 06:14:22;;;;;;;10.87;9.30;;;;;;;;;;6233619;28;20897;-65
2022/01/02 06:17:44;;;;;;;9.43;7.73;;;;;;;;;;6233266;28;20225;-65
2022/01/02 06:21:04;;;;;;;10.70;8.63;;;;;;;;;;6234697;28;20236;-65
2022/01/02 06:24:25;;;;;;;11.33;7.73;;;;;;;;;;6237685;28;20621;-64
2022/01/02 06:27:46;;;;;;;10.30;7.07;;;;;;;;;;6241628;28;20236;-63
2022/01/02 06:31:09;;;;;;;10.10;7.43;;;;;;;;;;6227560;28;20232;-64
2022/01/02 06:34:32;;;;;;;11.93;7.53;;;;;;;;;;6227679;28;20232;-65
2022/01/02 06:37:53;;;;;;;8.27;7.40;;;;;;;;;;6234496;28;20240;-65
2022/01/02 06:41:14;;;;;;;14.73;10.03;;;;;;;;;;6243689;28;20228;-63
2022/01/02 06:44:35;;;;;;;9.00;7.93;;;;;;;;;;6224857;28;20319;-64
2022/01/02 06:47:56;;;;;;;8.90;7.93;;;;;;;;;;6229731;28;20232;-64
2022/01/02 06:51:18;;;;;;;10.60;7.90;;;;;;;;;;6228748;28;20240;-65
2022/01/02 06:54:40;;;;;;;9.77;8.03;;;;;;;;;;6229194;28;20236;-65
2022/01/02 06:58:00;;;;;;;8.73;7.83;;;;;;;;;;6230227;28;20515;-64
2022/01/02 07:01:21;;;;;;;8.57;7.17;;;;;;;;;;6227012;28;20241;-65
2022/01/02 07:04:42;;;;;;;10.23;8.27;;;;;;;;;;6229593;28;20610;-65
2022/01/02 07:08:04;;;;;;;9.37;7.97;;;;;;;;;;6231340;28;20221;-65
2022/01/02 07:11:27;;;;;;;10.00;8.17;;;;;;;;;;6238443;28;20252;-64
2022/01/02 07:14:47;;;;;;;11.07;8.57;;;;;;;;;;6229467;28;21097;-63
2022/01/02 07:18:08;;;;;;;9.53;8.43;;;;;;;;;;6232020;28;20228;-65
2022/01/02 07:21:28;;;;;;;12.03;9.77;;;;;;;;;;6233185;28;20535;-65
2022/01/02 07:24:51;;;;;;;9.87;8.67;;;;;;;;;;6232536;28;20584;-64
2022/01/02 07:28:11;;;;;;;9.70;8.70;;;;;;;;;;6229727;28;20228;-64
2022/01/02 07:31:32;;;;;;;13.17;9.67;;;;;;;;;;6230168;28;21535;-64
2022/01/02 07:34:52;;;;;;;8.63;7.10;;;;;;;;;;6231312;28;20252;-64
2022/01/02 07:38:13;;;;;;;7.97;7.17;;;;;;;;;;6226350;28;20717;-65
2022/01/02 07:41:35;;;;;;;12.17;7.80;;;;;;;;;;6226027;28;20311;-64
2022/01/02 07:44:56;;;;;;;10.27;8.03;;;;;;;;;;6227064;28;20237;-64
2022/01/02 07:48:16;;;;;;;8.63;7.73;;;;;;;;;;6225127;28;20248;-64
2022/01/02 07:51:37;;;;;;;10.53;8.13;;;;;;;;;;6230349;28;20315;-65
2022/01/02 07:54:58;;;;;;;10.33;8.13;;;;;;;;;;6232845;28;20335;-64
2022/01/02 07:58:19;;;;;;;10.33;7.47;;;;;;;;;;6223655;28;20258;-64
2022/01/02 08:01:40;;;;;;;8.63;7.83;;;;;;;;;;6225444;28;20233;-64
2022/01/02 08:05:00;;;;;;;10.87;8.00;;;;;;;;;;6227793;28;20233;-63
2022/01/02 08:08:21;;;;;;;10.40;6.73;;;;;;;;;;6230390;28;20228;-64
2022/01/02 08:11:42;;;;;;;9.03;6.63;;;;;;;;;;6227129;28;20236;-64
2022/01/02 08:15:04;;;;;;;11.87;7.13;;;;;;;;;;6240205;28;20229;-65
2022/01/02 08:18:24;;;;;;;12.83;7.10;;;;;;;;;;6219252;28;20240;-64
2022/01/02 08:21:45;;;;;;;11.93;7.10;;;;;;;;;;6223482;28;20229;-65
2022/01/02 08:25:06;;;;;;;10.37;6.60;;;;;;;;;;6221173;28;20233;-64
2022/01/02 08:28:27;;;;;;;7.13;5.43;;;;;;;;;;6222356;28;20598;-65
2022/01/02 08:31:49;;;;;;;6.73;5.63;;;;;;;;;;6222772;28;20224;-64
2022/01/02 08:35:10;;;;;;;8.07;5.43;;;;;;;;;;6225394;28;20564;-65
2022/01/02 08:38:31;;;;;;;10.10;6.50;;;;;;;;;;6218644;28;20228;-66
2022/01/02 08:41:52;;;;;;;7.27;5.90;;;;;;;;;;6225925;28;20598;-65
2022/01/02 08:45:13;;;;;;;6.70;5.87;;;;;;;;;;6225612;28;20264;-65
2022/01/02 08:48:35;;;;;;;7.60;5.90;;;;;;;;;;6224202;28;20228;-64
2022/01/02 08:51:56;;;;;;;7.40;5.13;;;;;;;;;;6223287;28;20567;-64
2022/01/02 08:55:16;;;;;;;8.33;5.03;;;;;;;;;;6220393;28;20327;-65
2022/01/02 08:58:37;;;;;;;10.93;6.17;;;;;;;;;;6227653;28;20606;-64
2022/01/02 09:01:57;;;;;;;7.07;4.70;;;;;;;;;;6223361;28;21669;-64
2022/01/02 09:05:20;;;;;;;7.37;5.20;;;;;;;;;;6220765;28;20247;-64
2022/01/02 09:08:41;;;;;;;10.87;5.30;;;;;;;;;;6217086;28;20645;-65
2022/01/02 09:12:02;;;;;;;6.90;5.33;;;;;;;;;;6220414;28;20232;-64
2022/01/02 09:15:22;;;;;;;8.60;4.40;;;;;;;;;;6225975;28;20232;-64
2022/01/02 09:18:43;;;;;;;5.63;4.17;;;;;;;;;;6220640;28;20271;-65
2022/01/02 09:22:05;;;;;;;5.57;4.37;;;;;;;;;;6233907;28;20240;-63
2022/01/02 09:25:26;;;;;;;10.13;4.93;;;;;;;;;;6220898;28;20236;-63
2022/01/02 09:28:46;;;;;;;6.50;3.83;;;;;;;;;;6218864;28;20240;-64
2022/01/02 09:32:07;;;;;;;8.27;4.43;;;;;;;;;;6224731;28;20763;-64
2022/01/02 09:35:27;;;;;;;8.43;5.30;;;;;;;;;;6216081;28;20233;-63
2022/01/02 09:38:50;;;;;;;7.03;4.53;;;;;;;;;;6240706;28;20223;-65
2022/01/02 09:42:12;;;;;;;7.63;4.50;;;;;;;;;;6217064;28;20535;-64
2022/01/02 09:45:33;;;;;;;6.17;3.80;;;;;;;;;;6210016;28;20236;-64
2022/01/02 09:48:56;;;;;;;7.33;4.30;;;;;;;;;;6215252;28;20236;-64
2022/01/02 09:52:17;;;;;;;6.67;3.73;;;;;;;;;;6220725;28;20868;-63
2022/01/02 09:55:38;;;;;;;9.83;4.57;;;;;;;;;;6250816;28;20290;-63
2022/01/02 09:59:01;;;;;;;5.50;3.97;;;;;;;;;;6253506;28;20240;-63
2022/01/02 10:02:22;;;;;;;6.50;3.97;;;;;;;;;;6251629;28;20227;-63
2022/01/02 10:05:50;;;;;;;9.53;4.03;;;;;;;;;;6229526;28;20342;-63
2022/01/02 10:09:15;;;;;;;5.40;3.37;;;;;;;;;;6211665;28;20239;-64
2022/01/02 10:12:37;;;;;;;6.00;3.60;;;;;;;;;;6216406;28;20804;-63
2022/01/02 10:15:58;;;;;;;5.17;3.53;;;;;;;;;;6207350;28;20248;-62
2022/01/02 10:19:19;;;;;;;6.13;3.63;;;;;;;;;;6205515;28;20233;-64
2022/01/02 10:22:59;;;;;;;7.10;4.27;;;;;;;;;;6207711;28;20232;-63
2022/01/02 10:26:20;;;;;;;8.00;5.93;;;;;;;;;;6218016;28;20520;-63
2022/01/02 10:29:43;;;;;;;23.70;19.07;;;;;;;;;;6214150;28;20236;-64
2022/01/02 10:33:04;;;;;;;341.93;312.27;;;;;;;;;;6210533;28;20232;-62
2022/01/02 10:36:26;;;;;;;137.03;125.03;;;;;;;;;;6207890;28;20224;-62
2022/01/02 10:39:46;;;;;;;180.77;164.00;;;;;;;;;;6211448;28;21337;-62
2022/01/02 10:43:08;;;;;;;171.60;156.50;;;;;;;;;;6202946;28;20233;-64
2022/01/02 10:46:29;;;;;;;21.47;19.13;;;;;;;;;;6205089;28;20232;-65
2022/01/02 10:49:51;;;;;;;5.20;4.20;;;;;;;;;;6207427;28;20236;-64
2022/01/02 10:53:13;;;;;;;5.83;3.80;;;;;;;;;;6220870;28;20224;-62
2022/01/02 10:56:33;;;;;;;6.37;3.57;;;;;;;;;;6234416;28;20224;-63
2022/01/02 10:59:55;;;;;;;4.73;3.50;;;;;;;;;;6232507;28;20236;-63
2022/01/02 11:03:17;;;;;;;6.33;3.70;;;;;;;;;;6218043;28;20248;-63
2022/01/02 11:06:38;;;;;;;7.93;4.40;;;;;;;;;;6233499;28;20580;-64
2022/01/02 11:09:59;;;;;;;9.97;4.57;;;;;;;;;;6231929;28;20220;-64
2022/01/02 11:13:20;;;;;;;6.70;3.60;;;;;;;;;;6254277;28;20224;-65
2022/01/02 11:16:41;;;;;;;6.70;4.03;;;;;;;;;;6233449;28;20240;-64
2022/01/02 11:20:04;;;;;;;6.50;4.23;;;;;;;;;;6227672;28;20232;-64
2022/01/02 11:23:26;;;;;;;7.33;4.10;;;;;;;;;;6231473;28;20240;-64
2022/01/02 11:26:54;;;;;;;7.13;4.07;;;;;;;;;;6225121;28;20509;-62
2022/01/02 11:30:33;;;;;;;8.40;4.43;;;;;;;;;;6233787;28;20232;-63
2022/01/02 11:33:53;;;;;;;4.50;3.43;;;;;;;;;;6235765;28;20572;-64
2022/01/02 11:37:25;;;;;;;7.03;4.63;;;;;;;;;;6229770;28;20609;-64
2022/01/02 11:40:47;;;;;;;6.13;3.93;;;;;;;;;;6232157;28;20502;-64
2022/01/02 11:44:09;;;;;;;8.40;4.93;;;;;;;;;;6227098;28;20228;-65
2022/01/02 11:47:39;;;;;;;5.40;3.83;;;;;;;;;;6234466;28;20501;-64
2022/01/02 11:51:00;;;;;;;9.73;5.20;;;;;;;;;;6229813;28;20232;-63
2022/01/02 11:54:40;;;;;;;8.90;5.00;;;;;;;;;;6249759;28;20256;-64
2022/01/02 11:58:02;;;;;;;7.97;4.77;;;;;;;;;;6220149;28;20782;-64
2022/01/02 12:01:41;;;;;;;8.20;5.57;;;;;;;;;;6227022;28;20237;-63
2022/01/02 12:05:12;;;;;;;6.23;4.40;;;;;;;;;;6215178;28;20232;-62
2022/01/02 12:08:33;;;;;;;8.33;5.43;;;;;;;;;;6226397;28;20225;-64
2022/01/02 12:11:59;;;;;;;8.57;3.90;;;;;;;;;;6221435;28;20240;-63
2022/01/02 12:15:21;;;;;;;9.33;4.60;;;;;;;;;;6229348;28;20232;-64
2022/01/02 12:18:55;;;;;;;9.50;5.40;;;;;;;;;;6222566;28;20572;-64
2022/01/02 12:22:16;;;;;;;7.27;3.67;;;;;;;;;;6252079;28;20232;-64
2022/01/02 12:25:37;;;;;;;6.57;3.97;;;;;;;;;;6224005;28;20236;-63
2022/01/02 12:28:59;;;;;;;10.00;5.87;;;;;;;;;;6226697;28;20216;-64
2022/01/02 12:32:22;;;;;;;8.87;4.90;;;;;;;;;;6218962;28;20319;-65
2022/01/02 12:35:43;;;;;;;5.67;3.50;;;;;;;;;;6228629;28;20224;-64
2022/01/02 12:39:05;;;;;;;5.43;4.53;;;;;;;;;;6226713;28;20236;-62
2022/01/02 12:42:27;;;;;;;8.87;5.07;;;;;;;;;;6224990;28;20323;-65
2022/01/02 12:45:53;;;;;;;8.43;5.67;;;;;;;;;;6224879;28;20232;-63
2022/01/02 12:49:16;;;;;;;10.33;4.87;;;;;;;;;;6226811;28;20240;-63
2022/01/02 12:52:37;;;;;;;11.93;4.63;;;;;;;;;;6226061;28;20228;-62
2022/01/02 12:55:57;;;;;;;8.93;5.07;;;;;;;;;;6225949;28;20236;-63
2022/01/02 12:59:20;;;;;;;10.37;5.67;;;;;;;;;;6224467;28;20366;-64
2022/01/02 13:02:41;;;;;;;8.43;4.43;;;;;;;;;;6237268;28;20323;-63
2022/01/02 13:06:03;;;;;;;7.93;4.00;;;;;;;;;;6225283;28;20252;-61
2022/01/02 13:09:33;;;;;;;4.67;3.93;;;;;;;;;;6219777;28;20268;-61
2022/01/02 13:12:54;;;;;;;11.20;5.20;;;;;;;;;;6217993;28;20602;-61
2022/01/02 13:16:14;;;;;;;8.23;5.17;;;;;;;;;;6214893;28;20245;-60
2022/01/02 13:19:39;;;;;;;8.50;4.93;;;;;;;;;;6228275;28;20236;-60
2022/01/02 13:23:04;;;;;;;7.20;4.43;;;;;;;;;;6219545;28;20232;-60
2022/01/02 13:26:24;;;;;;;8.07;4.93;;;;;;;;;;6214380;28;20228;-60
2022/01/02 13:29:54;;;;;;;9.03;4.60;;;;;;;;;;6221263;28;20304;-61
2022/01/02 13:33:16;;;;;;;4.80;3.43;;;;;;;;;;6216512;28;20904;-61
2022/01/02 13:36:36;;;;;;;7.10;4.80;;;;;;;;;;6217408;28;20598;-60
2022/01/02 13:40:02;;;;;;;7.83;4.20;;;;;;;;;;6210529;28;20233;-61
2022/01/02 13:43:24;;;;;;;11.60;5.23;;;;;;;;;;6214556;28;20232;-61
2022/01/02 13:46:51;;;;;;;7.87;4.70;;;;;;;;;;6211037;28;20236;-62
2022/01/02 13:50:27;;;;;;;5.80;4.53;;;;;;;;;;6218336;28;20805;-61
2022/01/02 13:53:49;;;;;;;4.23;3.83;;;;;;;;;;6212472;28;20637;-64
2022/01/02 13:57:13;;;;;;;7.50;4.33;;;;;;;;;;6212634;28;20220;-63
2022/01/02 14:00:33;;;;;;;4.97;3.10;;;;;;;;;;6214337;28;20236;-64
2022/01/02 14:03:59;;;;;;;5.97;4.57;;;;;;;;;;6218136;28;20327;-63
2022/01/02 14:07:22;;;;;;;4.20;3.87;;;;;;;;;;6221817;28;20236;-64
2022/01/02 14:10:44;;;;;;;5.57;3.80;;;;;;;;;;6212845;28;20670;-64
2022/01/02 14:14:10;;;;;;;5.83;4.10;;;;;;;;;;6220043;28;20232;-62
2022/01/02 14:17:34;;;;;;;6.47;4.10;;;;;;;;;;6221382;28;20320;-63
2022/01/02 14:21:00;;;;;;;6.13;4.60;;;;;;;;;;6221944;28;20228;-64
2022/01/02 14:24:21;;;;;;;6.07;3.53;;;;;;;;;;6221087;28;20240;-63
2022/01/02 14:27:44;;;;;;;5.07;3.27;;;;;;;;;;6222373;28;20232;-63
2022/01/02 14:31:06;;;;;;;5.40;3.77;;;;;;;;;;6220690;28;20520;-63
2022/01/02 14:34:26;;;;;;;6.80;3.60;;;;;;;;;;6220836;28;20386;-64
2022/01/02 14:37:49;;;;;;;6.83;3.70;;;;;;;;;;6223668;28;20322;-63
2022/01/02 14:41:09;;;;;;;6.10;4.93;;;;;;;;;;6220698;28;20304;-63
2022/01/02 14:44:30;;;;;;;8.57;4.13;;;;;;;;;;6218261;28;20232;-62
2022/01/02 14:47:53;;;;;;;5.77;3.53;;;;;;;;;;6222224;28;20232;-62
2022/01/02 14:51:13;;;;;;;4.80;3.70;;;;;;;;;;6220000;28;20228;-65
2022/01/02 14:54:34;;;;;;;4.20;3.10;;;;;;;;;;6215646;28;20225;-62
2022/01/02 14:57:55;;;;;;;7.40;3.63;;;;;;;;;;6215397;28;20232;-64
2022/01/02 15:01:20;;;;;;;7.27;4.33;;;;;;;;;;6215040;28;20966;-63
2022/01/02 15:08:13;;;;;;;6.23;3.03;;;;;;;;;;6104346;23;20596;-64
2022/01/02 15:11:33;;;;;;;8.40;3.57;;;;;;;;;;6081785;28;20237;-63
2022/01/02 15:14:54;;;;;;;4.17;2.73;;;;;;;;;;6078044;28;20279;-63
2022/01/02 15:18:14;;;;;;;5.93;3.20;;;;;;;;;;6073126;29;20264;-63
2022/01/02 15:21:35;;;;;;;4.83;3.63;;;;;;;;;;6090797;28;20232;-62
2022/01/02 15:24:57;;;;;;;9.77;3.50;;;;;;;;;;6098899;28;20241;-63
2022/01/02 15:28:17;;;;;;;3.87;2.73;;;;;;;;;;6088616;28;20326;-64
2022/01/02 15:31:37;;;;;;;6.37;2.73;;;;;;;;;;6087455;28;20232;-63
2022/01/02 15:34:58;;;;;;;3.20;1.83;;;;;;;;;;6084599;28;20534;-63
2022/01/02 15:38:18;;;;;;;2.90;1.80;;;;;;;;;;6064213;28;20251;-63
2022/01/02 15:41:46;;;;;;;1.53;1.27;;;;;;;;;;6092789;28;20232;-62
2022/01/02 15:45:07;;;;;;;4.60;2.50;;;;;;;;;;6100347;28;20625;-62
2022/01/02 15:48:27;;;;;;;2.87;1.47;;;;;;;;;;6092100;28;20240;-64
2022/01/02 15:51:48;;;;;;;1.77;1.37;;;;;;;;;;6091243;28;20236;-63
2022/01/02 15:55:09;;;;;;;7.33;1.63;;;;;;;;;;6090384;28;20575;-63
2022/01/02 15:58:32;;;;;;;2.03;1.07;;;;;;;;;;6072126;28;20651;-63
2022/01/02 16:01:52;;;;;;;1.80;1.00;;;;;;;;;;6087877;28;20242;-64
2022/01/02 16:05:13;;;;;;;1.90;1.57;;;;;;;;;;6093718;28;20361;-64
2022/01/02 16:08:33;;;;;;;2.53;1.17;;;;;;;;;;6097539;28;20228;-63
2022/01/02 16:11:54;;;;;;;5.27;2.07;;;;;;;;;;6098148;28;20239;-64
2022/01/02 16:15:16;;;;;;;16.37;2.77;;;;;;;;;;6099375;28;20326;-63
2022/01/02 16:18:36;;;;;;;4.97;1.40;;;;;;;;;;6085359;28;20602;-62
2022/01/02 16:21:58;;;;;;;3.53;2.33;;;;;;;;;;6096774;28;20247;-64
2022/01/02 16:25:19;;;;;;;3.97;1.57;;;;;;;;;;6096165;28;21937;-63
2022/01/02 16:28:40;;;;;;;4.90;2.00;;;;;;;;;;6099986;28;20243;-63
2022/01/02 16:32:02;;;;;;;3.17;1.47;;;;;;;;;;6098706;28;20247;-63
2022/01/02 16:35:25;;;;;;;17.70;2.60;;;;;;;;;;6093325;28;20228;-64
2022/01/02 16:38:46;;;;;;;3.63;1.70;;;;;;;;;;6100117;28;20239;-63
2022/01/02 16:42:08;;;;;;;3.37;1.27;;;;;;;;;;6095557;28;20240;-62
2022/01/02 16:45:29;;;;;;;4.37;2.03;;;;;;;;;;6100474;28;20850;-63
2022/01/02 16:48:51;;;;;;;2.20;1.60;;;;;;;;;;6099620;28;20236;-63
2022/01/02 16:52:12;;;;;;;3.00;1.20;;;;;;;;;;6099525;28;20266;-63
2022/01/02 16:55:34;;;;;;;3.43;1.40;;;;;;;;;;6092100;28;20613;-63
2022/01/02 16:58:56;;;;;;;3.87;1.47;;;;;;;;;;6093099;28;20370;-61
2022/01/02 17:02:17;;;;;;;5.13;1.60;;;;;;;;;;6094080;28;20568;-60
2022/01/02 17:05:39;;;;;;;2.80;1.10;;;;;;;;;;6090974;28;20236;-63
2022/01/02 17:09:00;;;;;;;4.83;1.77;;;;;;;;;;6095274;28;20231;-63
2022/01/02 17:12:20;;;;;;;5.43;1.80;;;;;;;;;;6095434;28;20236;-63
2022/01/02 17:15:41;;;;;;;1.90;1.20;;;;;;;;;;6098965;28;20239;-64
2022/01/02 17:19:02;;;;;;;3.10;1.37;;;;;;;;;;6097462;28;20322;-63
2022/01/02 17:22:23;;;;;;;1.87;1.13;;;;;;;;;;6095355;28;20239;-64
2022/01/02 17:25:44;;;;;;;5.63;1.77;;;;;;;;;;6093820;28;20235;-63
2022/01/02 17:29:05;;;;;;;5.83;1.93;;;;;;;;;;6098402;28;20231;-63
2022/01/02 17:32:26;;;;;;;5.53;2.53;;;;;;;;;;6092302;28;20668;-63
2022/01/02 17:35:47;;;;;;;4.23;1.57;;;;;;;;;;6094608;28;22430;-63
2022/01/02 17:39:09;;;;;;;6.70;1.80;;;;;;;;;;6099868;28;20244;-62
2022/01/02 17:42:29;;;;;;;2.67;1.23;;;;;;;;;;6099334;28;20617;-62
2022/01/02 17:45:50;;;;;;;4.03;1.53;;;;;;;;;;6097056;28;20232;-64
2022/01/02 17:49:10;;;;;;;3.10;1.80;;;;;;;;;;6105014;28;20676;-63
2022/01/02 17:52:31;;;;;;;9.33;2.17;;;;;;;;;;6101068;28;20322;-63
2022/01/02 17:55:52;;;;;;;10.87;2.53;;;;;;;;;;6118625;28;20638;-63
2022/01/02 17:59:14;;;;;;;3.13;1.77;;;;;;;;;;6111835;28;20240;-64
2022/01/02 18:02:34;;;;;;;2.57;1.60;;;;;;;;;;6105430;28;20239;-63
2022/01/02 18:05:54;;;;;;;5.47;1.90;;;;;;;;;;6113729;28;20326;-64
2022/01/02 18:09:21;;;;;;;5.53;1.93;;;;;;;;;;6113373;28;20240;-63
2022/01/02 18:12:45;;;;;;;6.93;2.47;;;;;;;;;;6115716;28;20513;-63
2022/01/02 18:16:06;;;;;;;6.37;2.50;;;;;;;;;;6107597;28;20233;-62
2022/01/02 18:19:26;;;;;;;8.73;2.50;;;;;;;;;;6106551;28;20333;-63
2022/01/02 18:22:47;;;;;;;6.67;2.60;;;;;;;;;;6105190;28;20543;-63
2022/01/02 18:26:10;;;;;;;5.10;2.37;;;;;;;;;;6107003;28;21480;-63
2022/01/02 18:29:31;;;;;;;5.60;2.20;;;;;;;;;;6106128;28;20236;-63
2022/01/02 18:32:52;;;;;;;5.50;2.13;;;;;;;;;;6105932;28;20267;-63
2022/01/02 18:36:12;;;;;;;5.57;2.83;;;;;;;;;;6103918;28;20240;-62
2022/01/02 18:39:34;;;;;;;3.73;2.17;;;;;;;;;;6104745;28;20240;-62
2022/01/02 18:42:55;;;;;;;4.70;1.97;;;;;;;;;;6109288;28;20228;-63
2022/01/02 18:46:17;;;;;;;3.33;1.57;;;;;;;;;;6101959;28;21046;-63
2022/01/02 18:49:38;;;;;;;4.23;1.47;;;;;;;;;;6104140;28;20228;-63
2022/01/02 18:52:59;;;;;;;4.63;2.00;;;;;;;;;;6098123;28;20240;-63
2022/01/02 18:56:19;;;;;;;3.33;1.87;;;;;;;;;;6105917;28;20240;-63
2022/01/02 18:59:40;;;;;;;6.57;1.97;;;;;;;;;;6101308;28;20236;-63
2022/01/02 19:03:03;;;;;;;4.80;1.87;;;;;;;;;;6108042;28;20239;-63
2022/01/02 19:06:24;;;;;;;5.10;1.90;;;;;;;;;;6105460;28;21007;-63
2022/01/02 19:09:45;;;;;;;3.63;1.57;;;;;;;;;;6105591;28;20661;-63
2022/01/02 19:13:05;;;;;;;3.10;2.23;;;;;;;;;;6110494;28;20239;-63
2022/01/02 19:16:26;;;;;;;5.17;1.80;;;;;;;;;;6099865;28;20267;-63
2022/01/02 19:19:48;;;;;;;5.40;2.23;;;;;;;;;;6101048;28;20232;-63
2022/01/02 19:23:09;;;;;;;5.67;2.00;;;;;;;;;;6109204;28;20247;-63
2022/01/02 19:26:31;;;;;;;6.93;2.33;;;;;;;;;;6111969;28;20239;-63
2022/01/02 19:29:52;;;;;;;6.57;2.67;;;;;;;;;;6109074;28;20232;-62
2022/01/02 19:33:12;;;;;;;4.33;2.50;;;;;;;;;;6101085;28;20236;-63
2022/01/02 19:36:34;;;;;;;5.07;2.37;;;;;;;;;;6112975;28;20243;-64
2022/01/02 19:39:55;;;;;;;6.07;2.40;;;;;;;;;;6104649;28;20239;-64
2022/01/02 19:43:15;;;;;;;6.60;2.17;;;;;;;;;;6108624;28;20613;-63
2022/01/02 19:46:36;;;;;;;4.63;1.83;;;;;;;;;;6103754;28;20235;-63
2022/01/02 19:49:56;;;;;;;5.87;1.87;;;;;;;;;;6107785;28;20228;-63
2022/01/02 19:53:18;;;;;;;5.37;2.93;;;;;;;;;;6111335;28;20529;-65
2022/01/02 19:56:39;;;;;;;2.40;1.37;;;;;;;;;;6104918;28;20618;-62
2022/01/02 19:59:59;;;;;;;12.50;1.70;;;;;;;;;;6107918;28;20231;-63
2022/01/02 20:03:22;;;;;;;3.03;1.63;;;;;;;;;;6105478;28;20633;-64
2022/01/02 20:06:42;;;;;;;5.67;1.97;;;;;;;;;;6113600;28;20236;-64
2022/01/02 20:10:05;;;;;;;7.53;2.27;;;;;;;;;;6101122;28;20239;-64
2022/01/02 20:13:31;;;;;;;7.63;3.20;;;;;;;;;;6114817;28;20658;-62
2022/01/02 20:16:52;;;;;;;5.73;2.33;;;;;;;;;;6105400;28;20657;-63